Gambell, AK

1:43 PM AKST on February 11, 2016 (GMT -0900)
Gambell | | Change Station
CLOSE
Current Station
Airport
Location: Gambell,
Elevation: 26 ft
Nearby Weather Stations

Elev 26 ft 63.77 °N, 171.73 °W | Updated 294 days ago

Partly Cloudy
Partly Cloudy
1 °F
Feels Like -21 °F
N
22
Wind Variable Wind from NNE
Gusts 30 mph

Today
High -- | Low -- °F
--% Chance of Precip.
Yesterday
High -- | Low -- °F
Precip. -- in
Pressure 29.38 in
Visibility 5.0 miles
Clouds Scattered Clouds 2000 ft
Mostly Cloudy 3300 ft
Overcast 5500 ft
Windchill -21 °F
Dew Point -3 °F
Humidity 82%
Rainfall 0.00 in
Snow Depth Not available.
10:33 AM 6:49 PM
Waxing Crescent, 15% visible
METAR PAGM 231756Z AUTO 12016G22KT 5SM SCT020 BKN033 OVC055 M01/M02 A2938 RMK AO1 11010 21010 54000
Pressure 29.38 in
Visibility 5.0 miles
Clouds Scattered Clouds 2000 ft
Mostly Cloudy 3300 ft
Overcast 5500 ft
Windchill -21 °F
Dew Point -3 °F
Humidity 82%
Rainfall 0.00 in
Snow Depth Not available.
10:33 AM 6:49 PM
Waxing Crescent, 15% visible
METAR PAGM 231756Z AUTO 12016G22KT 5SM SCT020 BKN033 OVC055 M01/M02 A2938 RMK AO1 11010 21010 54000

10-Day Weather Forecast

Almanac

Astronomy

Feb. 11, 2016 Rise Set
Actual Time
Civil Twilight
Nautical Twilight
Astronomical Twilight
Moon
Length of Visible Light
Length of Day
Tomorrow will be .
, % of the Moon is Illuminated

Today's Extremes

State Highs State Lows

Community

WunderPhotos

Upload Photos

1,892,173 photos uploaded!

WunderBlog® & News

Nearby

Air Quality

  Air Quality AQ Index Pollutant
Not available.

Snow Depth

Station Depth Elevation

Earthquake Activity

City Distance Mag. Time & Date
Minimum magnitude displayed is 2.5.

Coastal Water Temperatures

Place Temperature

Stations

Nearby Weather Stations

Station Location Temp. Windchill Dew Point Humidity Wind Precip. Elev Updated Type
                   

Watches & Warnings

There are currently no watches in effect.